createdAt,value
2018-12-25T00:02:11.952Z,72.37
2018-12-25T00:04:41.117Z,47.43
2018-12-25T00:07:10.316Z,48.45
2018-12-25T00:09:39.478Z,48.30
2018-12-25T00:12:08.784Z,51.77
2018-12-25T00:14:38.059Z,46.20
2018-12-25T00:17:07.292Z,43.28
2018-12-25T00:19:36.523Z,41.68
2018-12-25T00:22:05.701Z,41.18
2018-12-25T00:24:34.876Z,41.35
2018-12-25T00:27:04.111Z,38.98
2018-12-25T00:29:33.336Z,29.12
2018-12-25T00:32:02.571Z,30.02
2018-12-25T00:34:31.740Z,26.93
2018-12-25T00:37:01.014Z,29.98
2018-12-25T00:39:30.252Z,26.50
2018-12-25T00:41:59.426Z,22.55
2018-12-25T00:44:28.605Z,30.40
2018-12-25T00:46:57.831Z,24.98
2018-12-25T00:49:27.065Z,25.17
2018-12-25T00:51:56.405Z,24.25
2018-12-25T00:54:25.542Z,28.27
2018-12-25T00:56:54.720Z,22.00
2018-12-25T00:59:23.991Z,23.20
2018-12-25T01:01:53.237Z,29.25
2018-12-25T01:04:22.635Z,22.45
2018-12-25T01:06:51.855Z,27.52
2018-12-25T01:09:21.096Z,25.60
2018-12-25T01:11:50.264Z,23.67
2018-12-25T01:14:19.535Z,22.48
2018-12-25T01:16:48.854Z,19.85
2018-12-25T01:19:23.330Z,24.63
2018-12-25T01:21:48.921Z,24.10
2018-12-25T01:24:18.144Z,19.52
2018-12-25T01:26:47.507Z,21.62
2018-12-25T01:29:16.683Z,28.23
2018-12-25T01:31:45.940Z,31.17
2018-12-25T01:34:15.104Z,25.85
2018-12-25T01:36:44.294Z,23.02
2018-12-25T01:39:13.452Z,22.52
2018-12-25T01:41:42.621Z,27.13
2018-12-25T01:44:11.829Z,28.05
2018-12-25T01:46:41.063Z,26.40
2018-12-25T01:49:10.231Z,25.02
2018-12-25T01:51:39.665Z,23.45
2018-12-25T01:54:08.861Z,18.62
2018-12-25T01:56:38.059Z,23.70
2018-12-25T01:59:07.316Z,24.30
2018-12-25T02:01:36.459Z,18.52
2018-12-25T02:04:05.631Z,18.02
2018-12-25T02:06:35.003Z,20.15
2018-12-25T02:09:06.269Z,21.90
2018-12-25T02:11:35.436Z,22.65
2018-12-25T02:14:04.705Z,20.88
2018-12-25T02:16:33.931Z,22.73
2018-12-25T02:19:03.089Z,26.82
2018-12-25T02:21:32.361Z,25.72
2018-12-25T02:24:01.599Z,25.82
2018-12-25T02:26:30.768Z,27.35
2018-12-25T02:28:59.969Z,23.07
2018-12-25T02:31:29.129Z,26.57
2018-12-25T02:33:58.367Z,25.55
2018-12-25T02:36:27.566Z,25.65
2018-12-25T02:38:56.737Z,24.43
2018-12-25T02:41:26.004Z,24.00
2018-12-25T02:43:55.415Z,26.12
2018-12-25T02:46:24.571Z,22.02
2018-12-25T02:48:53.892Z,22.60
2018-12-25T02:51:23.091Z,19.70
2018-12-25T02:53:52.256Z,19.62
2018-12-25T02:56:21.524Z,19.62
2018-12-25T02:58:50.804Z,22.58
2018-12-25T03:01:20.048Z,19.57
2018-12-25T03:03:49.359Z,19.27
2018-12-25T03:06:18.930Z,20.27
2018-12-25T03:08:48.161Z,23.32
2018-12-25T03:11:17.388Z,23.18
2018-12-25T03:13:46.799Z,26.17
2018-12-25T03:16:15.966Z,18.87
2018-12-25T03:18:45.203Z,18.20
2018-12-25T03:21:14.463Z,19.23
2018-12-25T03:23:43.694Z,17.55
2018-12-25T03:26:13.005Z,19.73
2018-12-25T03:28:42.209Z,26.48
2018-12-25T03:31:11.366Z,25.30
2018-12-25T03:33:40.665Z,25.85
2018-12-25T03:36:09.933Z,15.25
2018-12-25T03:38:39.074Z,17.80
2018-12-25T03:41:08.316Z,19.05
2018-12-25T03:43:37.515Z,24.05
2018-12-25T03:46:06.836Z,14.65
2018-12-25T03:48:36.076Z,17.15
2018-12-25T03:51:05.362Z,20.77
2018-12-25T03:53:34.604Z,17.17
2018-12-25T03:56:03.822Z,22.70
2018-12-25T03:58:33.109Z,21.77
2018-12-25T04:01:02.285Z,19.10
2018-12-25T04:03:31.700Z,23.30
2018-12-25T04:06:00.923Z,20.37
2018-12-25T04:08:30.100Z,18.40
2018-12-25T04:10:59.343Z,24.02
2018-12-25T04:13:28.548Z,17.25
2018-12-25T04:15:57.779Z,13.32
2018-12-25T04:18:27.049Z,16.52
2018-12-25T04:20:56.242Z,19.15
2018-12-25T04:23:25.510Z,18.23
2018-12-25T04:25:54.722Z,19.60
2018-12-25T04:28:23.900Z,16.67
2018-12-25T04:30:53.059Z,15.35
2018-12-25T04:33:22.363Z,13.95
2018-12-25T04:35:51.556Z,18.00
2018-12-25T04:38:20.718Z,15.53
2018-12-25T04:40:49.884Z,26.52
2018-12-25T04:43:19.128Z,18.35
2018-12-25T04:45:48.290Z,20.60
2018-12-25T04:48:17.462Z,18.77
2018-12-25T04:50:46.665Z,23.05
2018-12-25T04:53:15.838Z,20.15
2018-12-25T04:55:44.991Z,21.68
2018-12-25T04:58:14.245Z,22.20
2018-12-25T05:00:43.549Z,27.32
2018-12-25T05:03:12.720Z,16.85
2018-12-25T05:05:41.915Z,21.05
2018-12-25T05:08:12.358Z,21.02
2018-12-25T05:10:41.516Z,23.00
2018-12-25T05:13:10.738Z,24.32
2018-12-25T05:15:39.940Z,16.55
2018-12-25T05:18:09.166Z,19.17
2018-12-25T05:20:38.373Z,21.60
2018-12-25T05:23:07.530Z,19.87
2018-12-25T05:25:36.772Z,18.00
2018-12-25T05:28:05.952Z,16.77
2018-12-25T05:30:35.180Z,20.10
2018-12-25T05:33:04.351Z,18.75
2018-12-25T05:35:33.728Z,19.70
2018-12-25T05:38:02.943Z,21.07
2018-12-25T05:40:32.323Z,16.77
2018-12-25T05:43:01.516Z,16.00
2018-12-25T05:45:30.755Z,23.60
2018-12-25T05:48:00.055Z,22.32
2018-12-25T05:50:30.876Z,19.37
2018-12-25T05:53:00.083Z,24.50
2018-12-25T05:55:29.305Z,16.48
2018-12-25T05:57:58.696Z,17.55
2018-12-25T06:00:29.968Z,14.80
2018-12-25T06:02:59.130Z,18.62
2018-12-25T06:05:28.307Z,14.98
2018-12-25T06:07:57.513Z,16.02
2018-12-25T06:10:26.666Z,16.60
2018-12-25T06:12:55.846Z,20.10
2018-12-25T06:15:25.100Z,14.60
2018-12-25T06:17:54.312Z,17.40
2018-12-25T06:20:23.528Z,16.40
2018-12-25T06:22:53.112Z,16.80
2018-12-25T06:25:22.278Z,21.60
2018-12-25T06:27:54.230Z,13.60
2018-12-25T06:30:23.390Z,16.40
2018-12-25T06:32:52.642Z,21.80
2018-12-25T06:35:21.913Z,16.17
2018-12-25T06:37:51.073Z,22.60
2018-12-25T06:40:20.299Z,18.52
2018-12-25T06:42:49.494Z,15.78
2018-12-25T06:45:18.642Z,24.45
2018-12-25T06:47:47.884Z,16.82
2018-12-25T06:50:17.098Z,14.30
2018-12-25T06:52:46.276Z,23.07
2018-12-25T06:55:15.476Z,17.48
2018-12-25T06:57:44.748Z,25.50
2018-12-25T07:00:13.914Z,21.87
2018-12-25T07:02:43.055Z,24.10
2018-12-25T07:05:12.251Z,16.25
2018-12-25T07:07:41.427Z,23.65
2018-12-25T07:10:10.668Z,18.48
2018-12-25T07:12:39.879Z,17.20
2018-12-25T07:15:09.109Z,21.77
2018-12-25T07:17:39.779Z,20.55
2018-12-25T07:20:09.038Z,22.10
2018-12-25T07:22:38.196Z,17.48
2018-12-25T07:25:07.437Z,17.10
2018-12-25T07:27:36.612Z,21.02
2018-12-25T07:30:06.272Z,19.27
2018-12-25T07:32:35.723Z,14.65
2018-12-25T07:35:04.936Z,20.15
2018-12-25T07:37:34.376Z,23.38
2018-12-25T07:40:03.606Z,22.55
2018-12-25T07:42:32.873Z,41.05
2018-12-25T07:45:02.041Z,28.60
2018-12-25T07:47:32.739Z,26.73
2018-12-25T07:50:01.938Z,29.10
2018-12-25T07:52:31.120Z,21.87
2018-12-25T07:55:00.272Z,20.10
2018-12-25T07:57:29.558Z,18.00
2018-12-25T07:59:58.849Z,25.95
2018-12-25T08:02:28.022Z,28.38
2018-12-25T08:04:57.275Z,20.05
2018-12-25T08:07:26.802Z,20.02
2018-12-25T08:09:55.966Z,18.35
2018-12-25T08:12:25.197Z,19.05
2018-12-25T08:14:54.432Z,29.32
2018-12-25T08:17:25.662Z,20.70
2018-12-25T08:19:54.852Z,27.35
2018-12-25T08:22:24.014Z,19.23
2018-12-25T08:24:53.611Z,25.08
2018-12-25T08:27:22.834Z,12.73
2018-12-25T08:29:51.996Z,14.07
2018-12-25T08:32:24.370Z,15.95
2018-12-25T08:34:53.691Z,16.00
2018-12-25T08:37:22.920Z,21.12
2018-12-25T08:39:52.121Z,26.02
2018-12-25T08:42:21.347Z,20.52
2018-12-25T08:44:51.460Z,26.87
2018-12-25T08:47:20.623Z,27.52
2018-12-25T08:49:50.327Z,26.33
2018-12-25T08:52:19.788Z,30.65
2018-12-25T08:54:48.969Z,26.35
2018-12-25T08:57:18.403Z,32.42
2018-12-25T08:59:47.724Z,30.75
2018-12-25T09:02:16.958Z,27.40
2018-12-25T09:04:48.932Z,25.60
2018-12-25T09:10:07.477Z,23.07
2018-12-25T09:12:36.722Z,27.50
2018-12-25T09:15:06.432Z,28.12
2018-12-25T09:17:35.709Z,37.95
2018-12-25T09:20:05.508Z,30.82
2018-12-25T09:22:34.733Z,26.23
2018-12-25T09:25:04.185Z,28.23
2018-12-25T09:27:33.442Z,33.83
2018-12-25T09:30:03.138Z,34.05
2018-12-25T09:32:33.545Z,37.55
2018-12-25T09:35:04.080Z,35.52
2018-12-25T09:37:33.237Z,34.83
2018-12-25T09:40:02.428Z,24.90
2018-12-25T09:42:31.670Z,27.27
2018-12-25T09:45:00.843Z,22.85
2018-12-25T09:47:30.051Z,22.55
2018-12-25T09:49:59.215Z,19.60
2018-12-25T09:52:28.409Z,22.80
2018-12-25T09:54:57.696Z,17.98
2018-12-25T09:57:26.842Z,18.32
2018-12-25T09:59:56.008Z,27.07
2018-12-25T10:02:25.221Z,24.37
2018-12-25T10:04:56.546Z,18.10
2018-12-25T10:07:25.374Z,21.82
2018-12-25T10:09:54.715Z,21.00
2018-12-25T10:12:24.036Z,18.00
2018-12-25T10:14:53.265Z,23.67
2018-12-25T10:17:22.466Z,18.60
2018-12-25T10:19:51.741Z,21.30
2018-12-25T10:22:20.967Z,22.32
2018-12-25T10:24:51.412Z,20.82
2018-12-25T10:27:20.879Z,15.25
2018-12-25T10:29:50.446Z,16.90
2018-12-25T10:32:19.771Z,17.90
2018-12-25T10:34:48.943Z,16.37
2018-12-25T10:37:37.379Z,18.73
2018-12-25T10:40:07.183Z,14.65
2018-12-25T10:42:36.422Z,18.50
2018-12-25T10:45:05.811Z,16.32
2018-12-25T10:47:34.971Z,17.80
2018-12-25T10:50:04.290Z,18.23
2018-12-25T10:52:33.534Z,17.30
2018-12-25T10:55:02.889Z,17.15
2018-12-25T10:57:32.219Z,18.15
2018-12-25T11:00:01.462Z,18.92
2018-12-25T11:02:30.792Z,20.20
2018-12-25T11:05:00.077Z,14.33
2018-12-25T11:07:29.420Z,17.92
2018-12-25T11:09:58.572Z,14.30
2018-12-25T11:12:27.771Z,15.45
2018-12-25T11:14:56.961Z,13.28
2018-12-25T11:17:26.124Z,17.37
2018-12-25T11:19:55.312Z,16.65
2018-12-25T11:22:24.622Z,13.25
2018-12-25T11:24:53.940Z,22.73
2018-12-25T11:27:23.121Z,18.07
2018-12-25T11:29:52.454Z,16.87
2018-12-25T11:32:21.732Z,16.48
2018-12-25T11:34:50.997Z,15.13
2018-12-25T11:37:20.217Z,14.85
2018-12-25T11:39:49.782Z,15.03
2018-12-25T11:42:21.269Z,11.38
2018-12-25T11:44:50.502Z,17.82
2018-12-25T11:47:19.747Z,12.40
2018-12-25T11:49:49.063Z,13.18
2018-12-25T11:52:18.243Z,12.45
2018-12-25T11:54:47.543Z,15.35
2018-12-25T11:57:17.135Z,19.67
2018-12-25T11:59:46.340Z,11.95
2018-12-25T12:02:17.204Z,12.23
2018-12-25T12:04:46.715Z,11.68
2018-12-25T12:07:15.996Z,14.73
2018-12-25T12:09:45.298Z,14.53
2018-12-25T12:12:14.498Z,13.40
2018-12-25T12:14:43.787Z,13.40
2018-12-25T12:17:12.959Z,14.05
2018-12-25T12:19:42.120Z,12.40
2018-12-25T12:22:11.297Z,11.78
2018-12-25T12:24:40.525Z,10.20
2018-12-25T12:27:09.677Z,9.88
2018-12-25T12:29:39.039Z,13.88
2018-12-25T12:32:08.231Z,12.43
2018-12-25T12:34:37.383Z,16.15
2018-12-25T12:37:06.646Z,12.90
2018-12-25T12:39:35.834Z,11.68
2018-12-25T12:42:05.066Z,10.60
2018-12-25T12:44:34.338Z,12.82
2018-12-25T12:47:03.871Z,18.02
2018-12-25T12:49:33.101Z,11.20
2018-12-25T12:52:02.302Z,13.53
2018-12-25T12:54:31.544Z,12.25
2018-12-25T12:57:00.743Z,11.20
2018-12-25T12:59:29.934Z,13.22
2018-12-25T13:01:59.247Z,13.00
2018-12-25T13:04:28.725Z,13.83
2018-12-25T13:06:57.917Z,11.97
2018-12-25T13:09:27.081Z,13.22
2018-12-25T13:11:56.451Z,10.40
2018-12-25T13:14:25.717Z,10.45
2018-12-25T13:16:54.953Z,11.35
2018-12-25T13:19:24.194Z,13.55
2018-12-25T13:21:53.436Z,12.43
2018-12-25T13:24:24.548Z,14.05
2018-12-25T13:26:53.676Z,10.90
2018-12-25T13:29:22.885Z,10.78
2018-12-25T13:31:52.313Z,11.22
2018-12-25T13:34:21.472Z,12.65
2018-12-25T13:36:50.666Z,12.37
2018-12-25T13:39:19.947Z,12.45
2018-12-25T13:41:49.481Z,10.82
2018-12-25T13:44:18.723Z,18.70
2018-12-25T13:46:51.675Z,14.00
2018-12-25T13:49:18.844Z,14.15
2018-12-25T13:51:48.035Z,17.77
2018-12-25T13:54:17.382Z,12.73
2018-12-25T13:56:46.582Z,14.05
2018-12-25T13:59:15.851Z,14.98
2018-12-25T14:01:45.085Z,14.18
2018-12-25T14:04:14.335Z,25.17
2018-12-25T14:06:43.703Z,15.63
2018-12-25T14:09:12.871Z,15.75
2018-12-25T14:11:42.059Z,14.40
2018-12-25T14:14:11.271Z,22.37
2018-12-25T14:16:40.507Z,17.02
2018-12-25T14:19:09.684Z,12.30
2018-12-25T14:21:38.892Z,20.85
2018-12-25T14:24:08.062Z,19.32
2018-12-25T14:26:37.307Z,20.23
2018-12-25T14:29:06.524Z,12.75
2018-12-25T14:31:35.714Z,13.60
2018-12-25T14:34:04.919Z,20.72
2018-12-25T14:36:34.182Z,16.35
2018-12-25T14:39:04.807Z,19.45
2018-12-25T14:41:34.055Z,20.30
2018-12-25T14:44:05.388Z,24.12
2018-12-25T14:46:34.451Z,24.52
2018-12-25T14:49:03.634Z,25.35
2018-12-25T14:51:32.921Z,19.55
2018-12-25T14:54:02.268Z,20.35
2018-12-25T14:56:31.429Z,18.52
2018-12-25T14:59:00.670Z,15.45
2018-12-25T15:01:29.917Z,20.68
2018-12-25T15:03:59.080Z,27.80
2018-12-25T15:06:28.283Z,20.08
2018-12-25T15:08:57.619Z,21.93
2018-12-25T15:11:26.795Z,19.40
2018-12-25T15:13:55.989Z,18.55
2018-12-25T15:16:28.373Z,18.00
2018-12-25T15:18:57.599Z,20.85
2018-12-25T15:21:26.874Z,20.77
2018-12-25T15:23:56.258Z,18.30
2018-12-25T15:26:25.594Z,18.65
2018-12-25T15:28:54.785Z,17.30
2018-12-25T15:31:26.361Z,16.10
2018-12-25T15:33:55.529Z,22.13
2018-12-25T15:36:24.915Z,16.50
2018-12-25T15:38:54.199Z,31.33
2018-12-25T15:41:23.648Z,24.90
2018-12-25T15:43:52.975Z,21.40
2018-12-25T15:46:22.298Z,21.07
2018-12-25T15:48:51.476Z,22.45
2018-12-25T15:51:20.750Z,19.20
2018-12-25T15:53:50.525Z,22.50
2018-12-25T15:56:20.091Z,23.80
2018-12-25T15:58:49.424Z,21.50
2018-12-25T16:01:18.638Z,20.35
2018-12-25T16:03:47.898Z,25.00
2018-12-25T16:06:17.320Z,34.35
2018-12-25T16:08:46.595Z,28.50
2018-12-25T16:11:16.764Z,24.35
2018-12-25T16:13:46.391Z,22.48
2018-12-25T16:16:15.911Z,30.10
2018-12-25T16:18:45.105Z,22.02
2018-12-25T16:21:14.379Z,33.70
2018-12-25T16:23:45.438Z,30.30
2018-12-25T16:26:14.605Z,32.55
2018-12-25T16:28:44.345Z,35.98
2018-12-25T16:31:13.593Z,29.77
2018-12-25T16:33:42.767Z,32.08
2018-12-25T16:36:11.963Z,28.23
2018-12-25T16:38:41.152Z,33.23
2018-12-25T16:41:10.333Z,28.92
2018-12-25T16:43:39.618Z,40.25
2018-12-25T16:46:09.099Z,31.40
2018-12-25T16:48:38.369Z,30.92
2018-12-25T16:51:07.553Z,38.60
2018-12-25T16:53:36.796Z,35.80
2018-12-25T16:56:08.941Z,42.17
2018-12-25T16:58:38.216Z,38.78
2018-12-25T17:01:07.469Z,45.40
2018-12-25T17:03:36.825Z,36.65
2018-12-25T17:06:06.015Z,34.00
2018-12-25T17:08:35.175Z,36.68
2018-12-25T17:11:04.431Z,41.53
2018-12-25T17:13:34.952Z,43.63
2018-12-25T17:16:04.456Z,38.58
2018-12-25T17:18:33.618Z,41.20
2018-12-25T17:21:02.979Z,34.75
2018-12-25T17:23:32.211Z,36.85
2018-12-25T17:26:01.537Z,32.70
2018-12-25T17:28:30.735Z,35.98
2018-12-25T17:30:59.987Z,38.25
2018-12-25T17:33:29.153Z,40.45
2018-12-25T17:35:58.347Z,40.45
2018-12-25T17:38:27.870Z,44.23
2018-12-25T17:40:57.199Z,49.70
2018-12-25T17:43:26.409Z,57.53
2018-12-25T17:45:55.572Z,89.67
2018-12-25T17:48:24.830Z,66.37
2018-12-25T17:50:54.086Z,70.45
2018-12-25T17:53:23.277Z,67.65
2018-12-25T17:55:52.435Z,65.08
2018-12-25T17:58:21.840Z,56.25
2018-12-25T18:00:51.006Z,50.03
2018-12-25T18:03:20.180Z,51.42
2018-12-25T18:05:49.376Z,50.40
2018-12-25T18:08:18.527Z,49.67
2018-12-25T18:10:47.875Z,46.83
2018-12-25T18:13:17.421Z,52.55
2018-12-25T18:15:46.660Z,50.17
2018-12-25T18:18:15.990Z,46.70
2018-12-25T18:20:45.188Z,50.85
2018-12-25T18:23:14.343Z,45.33
2018-12-25T18:25:43.528Z,42.78
2018-12-25T18:28:12.793Z,46.75
2018-12-25T18:30:41.950Z,44.90
2018-12-25T18:33:11.181Z,42.10
2018-12-25T18:35:40.439Z,55.78
2018-12-25T18:38:11.444Z,44.45
2018-12-25T18:40:40.664Z,56.55
2018-12-25T18:43:09.875Z,42.73
2018-12-25T18:45:41.428Z,43.17
2018-12-25T18:48:10.739Z,52.25
2018-12-25T18:50:40.081Z,42.88
2018-12-25T18:53:09.334Z,39.92
2018-12-25T18:55:40.238Z,46.50
2018-12-25T18:58:09.509Z,43.05
2018-12-25T19:00:41.636Z,39.58
2018-12-25T19:03:10.884Z,50.92
2018-12-25T19:05:40.180Z,46.55
2018-12-25T19:08:09.442Z,50.15
2018-12-25T19:10:38.692Z,49.67
2018-12-25T19:13:07.927Z,53.63
2018-12-25T19:15:37.484Z,51.58
2018-12-25T19:18:09.711Z,50.38
2018-12-25T19:20:38.941Z,50.65
2018-12-25T19:23:08.202Z,64.37
2018-12-25T19:25:37.447Z,54.73
2018-12-25T19:28:06.710Z,50.73
2018-12-25T19:30:38.076Z,46.98
2018-12-25T19:33:07.543Z,45.80
2018-12-25T19:35:36.995Z,48.35
2018-12-25T19:38:06.160Z,47.93
2018-12-25T19:40:35.613Z,46.35
2018-12-25T19:43:04.870Z,47.38
2018-12-25T19:45:34.716Z,51.60
2018-12-25T19:48:04.017Z,53.00
2018-12-25T19:50:33.506Z,51.15
2018-12-25T19:53:02.759Z,55.75
2018-12-25T19:55:32.026Z,40.83
2018-12-25T19:58:01.302Z,62.75
2018-12-25T20:00:30.475Z,57.60
2018-12-25T20:03:05.671Z,53.28
2018-12-25T20:06:19.029Z,50.88
2018-12-25T20:09:35.025Z,63.85
2018-12-25T20:12:34.503Z,54.63
2018-12-25T20:15:40.962Z,56.15
2018-12-25T20:19:16.779Z,65.37
2018-12-25T20:22:26.316Z,69.90
2018-12-25T20:25:42.889Z,69.55
2018-12-25T20:28:56.503Z,73.67
2018-12-25T20:32:04.552Z,67.00
2018-12-25T20:35:09.463Z,66.05
2018-12-25T20:38:14.254Z,59.65
2018-12-25T20:41:25.320Z,71.55
2018-12-25T20:44:34.082Z,72.17
2018-12-25T20:47:37.121Z,63.85
2018-12-25T20:50:42.181Z,55.38
2018-12-25T20:54:06.314Z,62.08
2018-12-25T20:57:17.197Z,53.98
2018-12-25T21:00:23.337Z,50.00
2018-12-25T21:03:28.395Z,61.30
2018-12-25T21:06:47.868Z,75.10
2018-12-25T21:09:54.085Z,58.13
2018-12-25T21:13:03.698Z,58.70
2018-12-25T21:16:13.041Z,65.10
2018-12-25T21:19:28.318Z,54.33
2018-12-25T21:22:44.695Z,54.88
2018-12-25T21:25:51.048Z,57.83
2018-12-25T21:28:18.810Z,93.20
2018-12-25T21:40:32.269Z,59.93
2018-12-25T21:43:01.585Z,73.12
2018-12-25T21:45:30.955Z,64.15
2018-12-25T21:48:01.022Z,69.00
2018-12-25T21:50:30.503Z,69.80
2018-12-25T21:52:59.784Z,67.87
2018-12-25T21:55:30.788Z,69.95
2018-12-25T21:58:00.656Z,72.35
2018-12-25T22:00:32.572Z,79.17
2018-12-25T22:03:02.462Z,76.00
2018-12-25T22:05:34.628Z,62.90
2018-12-25T22:08:04.034Z,68.12
2018-12-25T22:10:33.350Z,69.77
2018-12-25T22:13:03.066Z,56.65
2018-12-25T22:15:32.334Z,67.10
2018-12-25T22:18:01.706Z,71.60
2018-12-25T22:20:34.024Z,62.27
2018-12-25T22:23:03.467Z,66.95
2018-12-25T22:25:32.869Z,63.70
2018-12-25T22:28:02.226Z,66.28
2018-12-25T22:30:31.526Z,66.90
2018-12-25T22:33:00.863Z,59.55
2018-12-25T22:35:30.217Z,56.20
2018-12-25T22:37:59.598Z,58.65
2018-12-25T22:40:28.970Z,56.70
2018-12-25T22:42:58.242Z,70.20
2018-12-25T22:45:27.712Z,61.70
2018-12-25T22:48:00.358Z,56.90
2018-12-25T22:50:30.197Z,70.72
2018-12-25T22:52:59.770Z,59.35
2018-12-25T22:55:35.861Z,64.55
2018-12-25T22:58:02.530Z,56.95
2018-12-25T23:00:32.340Z,56.37
2018-12-25T23:03:01.716Z,68.05
2018-12-25T23:05:31.070Z,56.88
2018-12-25T23:08:00.377Z,62.48
2018-12-25T23:10:30.470Z,57.23
2018-12-25T23:12:59.862Z,57.98
2018-12-25T23:15:29.130Z,60.40
2018-12-25T23:17:59.532Z,61.00
2018-12-25T23:20:29.133Z,70.92
2018-12-25T23:22:58.769Z,57.48
2018-12-25T23:25:28.094Z,63.45
2018-12-25T23:27:57.450Z,63.48
2018-12-25T23:30:27.841Z,62.53
2018-12-25T23:32:57.223Z,58.98
2018-12-25T23:35:26.554Z,66.65
2018-12-25T23:37:55.956Z,71.00
2018-12-25T23:40:25.603Z,67.87
2018-12-25T23:42:54.984Z,61.95
2018-12-25T23:45:24.333Z,56.88
2018-12-25T23:47:53.651Z,56.95
2018-12-25T23:50:22.931Z,54.70
2018-12-25T23:52:52.328Z,52.38
2018-12-25T23:55:21.636Z,62.30
2018-12-25T23:57:50.983Z,66.55
